Sacramento, California
Traffic Map
Current Weather Conditions
Sacramento, California
Clear
Clear
92°
Feels Like: 92°
Wind Chill: 92° Ceiling: Unl
Heat Index: 92° Visibility: 10mi
Dew Point: 49° Wind: 3mph
Humidity: 23% Direction: ° ()
Pressure: 29.81in Gusts: 0mph
Raw Report DataKSAC 311953Z AUTO VRB03KT 10SM CLR 33/09 A2981 RMK AO2 SLP093 T03330094 TSNO
Traffic Incident Summary
Active as of:
Severity:
Category:
InformationThere was an issue retrieving the traffic information for this location. Please try a different location or try again shortly.
Advertisements
Track Severe Weather on mobile